sensor_id;sensor_type;location;lat;lon;timestamp;temperature;humidity
68439;SHT31;55421;51.600;5.718;2023-04-25T00:01:21;7.73;77.17
68439;SHT31;55421;51.600;5.718;2023-04-25T00:03:48;7.74;77.20
68439;SHT31;55421;51.600;5.718;2023-04-25T00:06:15;7.75;77.20
68439;SHT31;55421;51.600;5.718;2023-04-25T00:08:41;7.76;77.24
68439;SHT31;55421;51.600;5.718;2023-04-25T00:11:08;7.75;77.21
68439;SHT31;55421;51.600;5.718;2023-04-25T00:13:34;7.72;77.20
68439;SHT31;55421;51.600;5.718;2023-04-25T00:16:00;7.69;77.22
68439;SHT31;55421;51.600;5.718;2023-04-25T00:18:28;7.66;77.29
68439;SHT31;55421;51.600;5.718;2023-04-25T00:20:55;7.63;77.30
68439;SHT31;55421;51.600;5.718;2023-04-25T00:23:22;7.60;77.34
68439;SHT31;55421;51.600;5.718;2023-04-25T00:25:48;7.58;77.40
68439;SHT31;55421;51.600;5.718;2023-04-25T00:28:16;7.56;77.40
68439;SHT31;55421;51.600;5.718;2023-04-25T00:30:43;7.53;77.40
68439;SHT31;55421;51.600;5.718;2023-04-25T00:33:09;7.51;77.44
68439;SHT31;55421;51.600;5.718;2023-04-25T00:35:36;7.49;77.50
68439;SHT31;55421;51.600;5.718;2023-04-25T00:38:02;7.46;77.54
68439;SHT31;55421;51.600;5.718;2023-04-25T00:40:29;7.44;77.63
68439;SHT31;55421;51.600;5.718;2023-04-25T00:42:55;7.42;77.73
68439;SHT31;55421;51.600;5.718;2023-04-25T00:45:22;7.40;77.81
68439;SHT31;55421;51.600;5.718;2023-04-25T00:47:58;7.39;77.89
68439;SHT31;55421;51.600;5.718;2023-04-25T00:50:25;7.36;77.99
68439;SHT31;55421;51.600;5.718;2023-04-25T00:52:52;7.33;78.02
68439;SHT31;55421;51.600;5.718;2023-04-25T00:55:18;7.30;78.10
68439;SHT31;55421;51.600;5.718;2023-04-25T00:57:46;7.29;78.15
68439;SHT31;55421;51.600;5.718;2023-04-25T01:00:13;7.27;78.23
68439;SHT31;55421;51.600;5.718;2023-04-25T01:02:40;7.28;78.30
68439;SHT31;55421;51.600;5.718;2023-04-25T01:05:08;7.26;78.34
68439;SHT31;55421;51.600;5.718;2023-04-25T01:07:35;7.25;78.34
68439;SHT31;55421;51.600;5.718;2023-04-25T01:10:02;7.22;78.41
68439;SHT31;55421;51.600;5.718;2023-04-25T01:12:28;7.20;78.46
68439;SHT31;55421;51.600;5.718;2023-04-25T01:14:55;7.18;78.51
68439;SHT31;55421;51.600;5.718;2023-04-25T01:17:22;7.15;78.61
68439;SHT31;55421;51.600;5.718;2023-04-25T01:19:49;7.14;78.62
68439;SHT31;55421;51.600;5.718;2023-04-25T01:22:16;7.11;78.69
68439;SHT31;55421;51.600;5.718;2023-04-25T01:24:43;7.09;78.70
68439;SHT31;55421;51.600;5.718;2023-04-25T01:27:10;7.05;78.74
68439;SHT31;55421;51.600;5.718;2023-04-25T01:29:37;7.03;78.80
68439;SHT31;55421;51.600;5.718;2023-04-25T01:32:04;7.00;78.79
68439;SHT31;55421;51.600;5.718;2023-04-25T01:34:32;6.98;78.82
68439;SHT31;55421;51.600;5.718;2023-04-25T01:36:59;6.95;78.90
68439;SHT31;55421;51.600;5.718;2023-04-25T01:39:27;6.93;78.93
68439;SHT31;55421;51.600;5.718;2023-04-25T01:41:54;6.90;79.00
68439;SHT31;55421;51.600;5.718;2023-04-25T01:44:24;6.88;79.00
68439;SHT31;55421;51.600;5.718;2023-04-25T01:46:50;6.87;79.04
68439;SHT31;55421;51.600;5.718;2023-04-25T01:49:17;6.87;79.10
68439;SHT31;55421;51.600;5.718;2023-04-25T01:51:43;6.87;79.17
68439;SHT31;55421;51.600;5.718;2023-04-25T01:54:10;6.86;79.19
68439;SHT31;55421;51.600;5.718;2023-04-25T01:56:37;6.86;79.20
68439;SHT31;55421;51.600;5.718;2023-04-25T01:59:05;6.85;79.20
68439;SHT31;55421;51.600;5.718;2023-04-25T02:01:32;6.85;79.29
68439;SHT31;55421;51.600;5.718;2023-04-25T02:03:59;6.84;79.32
68439;SHT31;55421;51.600;5.718;2023-04-25T02:06:25;6.86;79.40
68439;SHT31;55421;51.600;5.718;2023-04-25T02:08:52;6.87;79.40
68439;SHT31;55421;51.600;5.718;2023-04-25T02:11:18;6.87;79.40
68439;SHT31;55421;51.600;5.718;2023-04-25T02:13:45;6.88;79.40
68439;SHT31;55421;51.600;5.718;2023-04-25T02:16:11;6.89;79.40
68439;SHT31;55421;51.600;5.718;2023-04-25T02:18:39;6.90;79.40
68439;SHT31;55421;51.600;5.718;2023-04-25T02:21:05;6.89;79.40
68439;SHT31;55421;51.600;5.718;2023-04-25T02:23:32;6.89;79.39
68439;SHT31;55421;51.600;5.718;2023-04-25T02:25:59;6.88;79.40
68439;SHT31;55421;51.600;5.718;2023-04-25T02:28:25;6.87;79.39
68439;SHT31;55421;51.600;5.718;2023-04-25T02:30:52;6.87;79.40
68439;SHT31;55421;51.600;5.718;2023-04-25T02:33:19;6.88;79.35
68439;SHT31;55421;51.600;5.718;2023-04-25T02:35:46;6.88;79.29
68439;SHT31;55421;51.600;5.718;2023-04-25T02:38:13;6.86;79.25
68439;SHT31;55421;51.600;5.718;2023-04-25T02:40:40;6.85;79.23
68439;SHT31;55421;51.600;5.718;2023-04-25T02:43:07;6.83;79.28
68439;SHT31;55421;51.600;5.718;2023-04-25T02:45:34;6.80;79.24
68439;SHT31;55421;51.600;5.718;2023-04-25T02:48:02;6.78;79.30
68439;SHT31;55421;51.600;5.718;2023-04-25T02:50:29;6.75;79.30
68439;SHT31;55421;51.600;5.718;2023-04-25T02:52:55;6.72;79.30
68439;SHT31;55421;51.600;5.718;2023-04-25T02:55:22;6.69;79.34
68439;SHT31;55421;51.600;5.718;2023-04-25T02:57:49;6.66;79.36
68439;SHT31;55421;51.600;5.718;2023-04-25T03:00:15;6.62;79.38
68439;SHT31;55421;51.600;5.718;2023-04-25T03:02:42;6.60;79.40
68439;SHT31;55421;51.600;5.718;2023-04-25T03:05:08;6.58;79.41
68439;SHT31;55421;51.600;5.718;2023-04-25T03:07:35;6.56;79.50
68439;SHT31;55421;51.600;5.718;2023-04-25T03:10:01;6.55;79.49
68439;SHT31;55421;51.600;5.718;2023-04-25T03:12:28;6.52;79.51
68439;SHT31;55421;51.600;5.718;2023-04-25T03:14:55;6.51;79.45
68439;SHT31;55421;51.600;5.718;2023-04-25T03:17:21;6.49;79.44
68439;SHT31;55421;51.600;5.718;2023-04-25T03:19:47;6.48;79.47
68439;SHT31;55421;51.600;5.718;2023-04-25T03:22:14;6.47;79.51
68439;SHT31;55421;51.600;5.718;2023-04-25T03:24:41;6.46;79.48
68439;SHT31;55421;51.600;5.718;2023-04-25T03:27:07;6.44;79.47
68439;SHT31;55421;51.600;5.718;2023-04-25T03:29:33;6.42;79.50
68439;SHT31;55421;51.600;5.718;2023-04-25T03:32:00;6.42;79.49
68439;SHT31;55421;51.600;5.718;2023-04-25T03:34:26;6.41;79.41
68439;SHT31;55421;51.600;5.718;2023-04-25T03:36:54;6.41;79.49
68439;SHT31;55421;51.600;5.718;2023-04-25T03:39:21;6.42;79.51
68439;SHT31;55421;51.600;5.718;2023-04-25T03:41:48;6.44;79.45
68439;SHT31;55421;51.600;5.718;2023-04-25T03:44:15;6.47;79.37
68439;SHT31;55421;51.600;5.718;2023-04-25T03:46:41;6.47;79.31
68439;SHT31;55421;51.600;5.718;2023-04-25T03:49:08;6.48;79.20
68439;SHT31;55421;51.600;5.718;2023-04-25T03:51:34;6.49;79.20
68439;SHT31;55421;51.600;5.718;2023-04-25T03:54:01;6.49;79.12
68439;SHT31;55421;51.600;5.718;2023-04-25T03:56:27;6.51;79.15
68439;SHT31;55421;51.600;5.718;2023-04-25T03:58:54;6.50;79.03
68439;SHT31;55421;51.600;5.718;2023-04-25T04:01:20;6.48;79.02
68439;SHT31;55421;51.600;5.718;2023-04-25T04:03:47;6.46;79.00
68439;SHT31;55421;51.600;5.718;2023-04-25T04:06:13;6.43;78.93
68439;SHT31;55421;51.600;5.718;2023-04-25T04:08:41;6.40;78.92
68439;SHT31;55421;51.600;5.718;2023-04-25T04:11:07;6.40;79.00
68439;SHT31;55421;51.600;5.718;2023-04-25T04:13:33;6.41;79.07
68439;SHT31;55421;51.600;5.718;2023-04-25T04:16:00;6.40;79.01
68439;SHT31;55421;51.600;5.718;2023-04-25T04:18:26;6.41;79.01
68439;SHT31;55421;51.600;5.718;2023-04-25T04:20:53;6.43;78.98
68439;SHT31;55421;51.600;5.718;2023-04-25T04:23:19;6.43;78.89
68439;SHT31;55421;51.600;5.718;2023-04-25T04:25:46;6.41;78.82
68439;SHT31;55421;51.600;5.718;2023-04-25T04:28:14;6.41;78.83
68439;SHT31;55421;51.600;5.718;2023-04-25T04:30:42;6.40;78.78
68439;SHT31;55421;51.600;5.718;2023-04-25T04:33:08;6.37;78.73
68439;SHT31;55421;51.600;5.718;2023-04-25T04:35:35;6.35;78.77
68439;SHT31;55421;51.600;5.718;2023-04-25T04:38:01;6.34;78.80
68439;SHT31;55421;51.600;5.718;2023-04-25T04:40:28;6.31;78.80
68439;SHT31;55421;51.600;5.718;2023-04-25T04:42:57;6.31;78.84
68439;SHT31;55421;51.600;5.718;2023-04-25T04:45:23;6.29;78.83
68439;SHT31;55421;51.600;5.718;2023-04-25T04:47:50;6.26;78.87
68439;SHT31;55421;51.600;5.718;2023-04-25T04:50:16;6.26;78.92
68439;SHT31;55421;51.600;5.718;2023-04-25T04:52:44;6.27;78.99
68439;SHT31;55421;51.600;5.718;2023-04-25T04:55:10;6.28;79.00
68439;SHT31;55421;51.600;5.718;2023-04-25T04:57:37;6.31;79.00
68439;SHT31;55421;51.600;5.718;2023-04-25T05:00:05;6.36;78.93
68439;SHT31;55421;51.600;5.718;2023-04-25T05:02:37;6.40;78.90
68439;SHT31;55421;51.600;5.718;2023-04-25T05:05:05;6.46;78.89
68439;SHT31;55421;51.600;5.718;2023-04-25T05:07:32;6.53;78.94
68439;SHT31;55421;51.600;5.718;2023-04-25T05:09:59;6.63;78.97
68439;SHT31;55421;51.600;5.718;2023-04-25T05:12:25;6.74;78.83
68439;SHT31;55421;51.600;5.718;2023-04-25T05:14:52;6.84;78.80
68439;SHT31;55421;51.600;5.718;2023-04-25T05:17:18;6.92;78.72
68439;SHT31;55421;51.600;5.718;2023-04-25T05:19:45;6.95;78.61
68439;SHT31;55421;51.600;5.718;2023-04-25T05:22:11;6.97;78.53
68439;SHT31;55421;51.600;5.718;2023-04-25T05:24:38;6.95;78.35
68439;SHT31;55421;51.600;5.718;2023-04-25T05:27:05;6.95;78.36
68439;SHT31;55421;51.600;5.718;2023-04-25T05:29:31;6.96;78.35
68439;SHT31;55421;51.600;5.718;2023-04-25T05:31:58;6.97;78.38
68439;SHT31;55421;51.600;5.718;2023-04-25T05:34:24;7.00;78.30
68439;SHT31;55421;51.600;5.718;2023-04-25T05:36:50;7.03;78.30
68439;SHT31;55421;51.600;5.718;2023-04-25T05:39:17;7.07;78.20
68439;SHT31;55421;51.600;5.718;2023-04-25T05:41:44;7.12;78.18
68439;SHT31;55421;51.600;5.718;2023-04-25T05:44:10;7.21;78.27
68439;SHT31;55421;51.600;5.718;2023-04-25T05:46:36;7.29;78.02
68439;SHT31;55421;51.600;5.718;2023-04-25T05:49:03;7.32;77.92
68439;SHT31;55421;51.600;5.718;2023-04-25T05:51:30;7.35;77.76
68439;SHT31;55421;51.600;5.718;2023-04-25T05:53:57;7.39;77.52
68439;SHT31;55421;51.600;5.718;2023-04-25T05:56:24;7.40;77.39
68439;SHT31;55421;51.600;5.718;2023-04-25T05:58:50;7.38;77.16
68439;SHT31;55421;51.600;5.718;2023-04-25T06:01:17;7.36;77.09
68439;SHT31;55421;51.600;5.718;2023-04-25T06:03:43;7.40;77.37
68439;SHT31;55421;51.600;5.718;2023-04-25T06:06:11;7.44;77.20
68439;SHT31;55421;51.600;5.718;2023-04-25T06:08:38;7.48;76.89
68439;SHT31;55421;51.600;5.718;2023-04-25T06:11:04;7.53;76.72
68439;SHT31;55421;51.600;5.718;2023-04-25T06:13:31;7.58;76.51
68439;SHT31;55421;51.600;5.718;2023-04-25T06:15:58;7.65;76.32
68439;SHT31;55421;51.600;5.718;2023-04-25T06:18:24;7.69;76.02
68439;SHT31;55421;51.600;5.718;2023-04-25T06:20:50;7.75;75.84
68439;SHT31;55421;51.600;5.718;2023-04-25T06:23:17;7.83;75.42
68439;SHT31;55421;51.600;5.718;2023-04-25T06:25:43;7.85;75.01
68439;SHT31;55421;51.600;5.718;2023-04-25T06:28:10;7.93;75.06
68439;SHT31;55421;51.600;5.718;2023-04-25T06:30:36;7.99;74.85
68439;SHT31;55421;51.600;5.718;2023-04-25T06:33:03;8.03;74.74
68439;SHT31;55421;51.600;5.718;2023-04-25T06:35:29;8.04;74.42
68439;SHT31;55421;51.600;5.718;2023-04-25T06:37:56;8.05;74.42
68439;SHT31;55421;51.600;5.718;2023-04-25T06:40:22;8.11;74.48
68439;SHT31;55421;51.600;5.718;2023-04-25T06:42:49;8.20;74.24
68439;SHT31;55421;51.600;5.718;2023-04-25T06:45:16;8.33;74.09
68439;SHT31;55421;51.600;5.718;2023-04-25T06:47:42;8.39;73.59
68439;SHT31;55421;51.600;5.718;2023-04-25T06:50:09;8.44;73.35
68439;SHT31;55421;51.600;5.718;2023-04-25T06:52:36;8.50;73.25
68439;SHT31;55421;51.600;5.718;2023-04-25T06:55:03;8.59;73.17
68439;SHT31;55421;51.600;5.718;2023-04-25T06:57:31;8.67;73.12
68439;SHT31;55421;51.600;5.718;2023-04-25T06:59:58;8.76;73.07
68439;SHT31;55421;51.600;5.718;2023-04-25T07:02:24;8.82;72.80
68439;SHT31;55421;51.600;5.718;2023-04-25T07:04:51;8.84;72.48
68439;SHT31;55421;51.600;5.718;2023-04-25T07:07:17;8.86;72.21
68439;SHT31;55421;51.600;5.718;2023-04-25T07:09:44;8.90;72.04
68439;SHT31;55421;51.600;5.718;2023-04-25T07:12:10;8.99;71.68
68439;SHT31;55421;51.600;5.718;2023-04-25T07:14:37;9.06;71.24
68439;SHT31;55421;51.600;5.718;2023-04-25T07:17:03;9.11;71.22
68439;SHT31;55421;51.600;5.718;2023-04-25T07:19:32;9.17;70.88
68439;SHT31;55421;51.600;5.718;2023-04-25T07:21:59;9.32;70.98
68439;SHT31;55421;51.600;5.718;2023-04-25T07:24:26;9.46;70.94
68439;SHT31;55421;51.600;5.718;2023-04-25T07:26:52;9.53;70.44
68439;SHT31;55421;51.600;5.718;2023-04-25T07:29:19;9.64;70.57
68439;SHT31;55421;51.600;5.718;2023-04-25T07:31:45;9.72;70.14
68439;SHT31;55421;51.600;5.718;2023-04-25T07:34:12;9.76;70.20
68439;SHT31;55421;51.600;5.718;2023-04-25T07:36:38;9.74;70.16
68439;SHT31;55421;51.600;5.718;2023-04-25T07:39:06;9.68;69.74
68439;SHT31;55421;51.600;5.718;2023-04-25T07:41:32;9.74;69.51
68439;SHT31;55421;51.600;5.718;2023-04-25T07:43:59;9.86;69.14
68439;SHT31;55421;51.600;5.718;2023-04-25T07:46:25;9.89;68.50
68439;SHT31;55421;51.600;5.718;2023-04-25T07:48:52;9.81;67.93
68439;SHT31;55421;51.600;5.718;2023-04-25T07:51:18;9.86;68.42
68439;SHT31;55421;51.600;5.718;2023-04-25T07:53:45;9.86;68.14
68439;SHT31;55421;51.600;5.718;2023-04-25T07:56:12;9.80;67.62
68439;SHT31;55421;51.600;5.718;2023-04-25T07:58:38;9.78;67.48
68439;SHT31;55421;51.600;5.718;2023-04-25T08:01:05;9.92;67.64
68439;SHT31;55421;51.600;5.718;2023-04-25T08:03:31;10.06;66.78
68439;SHT31;55421;51.600;5.718;2023-04-25T08:05:58;10.07;66.55
68439;SHT31;55421;51.600;5.718;2023-04-25T08:08:24;10.05;65.82
68439;SHT31;55421;51.600;5.718;2023-04-25T08:10:51;9.98;65.49
68439;SHT31;55421;51.600;5.718;2023-04-25T08:13:17;9.84;64.77
68439;SHT31;55421;51.600;5.718;2023-04-25T08:15:44;9.74;65.31
68439;SHT31;55421;51.600;5.718;2023-04-25T08:18:10;9.75;65.90
68439;SHT31;55421;51.600;5.718;2023-04-25T08:20:37;9.86;66.32
68439;SHT31;55421;51.600;5.718;2023-04-25T08:23:03;9.97;66.00
68439;SHT31;55421;51.600;5.718;2023-04-25T08:25:30;10.08;65.30
68439;SHT31;55421;51.600;5.718;2023-04-25T08:27:56;10.16;64.52
68439;SHT31;55421;51.600;5.718;2023-04-25T08:30:25;10.25;63.76
68439;SHT31;55421;51.600;5.718;2023-04-25T08:32:53;10.38;63.60
68439;SHT31;55421;51.600;5.718;2023-04-25T08:35:19;10.39;62.66
68439;SHT31;55421;51.600;5.718;2023-04-25T08:37:46;10.41;62.00
68439;SHT31;55421;51.600;5.718;2023-04-25T08:40:14;10.50;61.72
68439;SHT31;55421;51.600;5.718;2023-04-25T08:42:41;10.67;61.84
68439;SHT31;55421;51.600;5.718;2023-04-25T08:45:09;10.76;61.33
68439;SHT31;55421;51.600;5.718;2023-04-25T08:47:37;10.78;61.53
68439;SHT31;55421;51.600;5.718;2023-04-25T08:50:06;10.80;61.25
68439;SHT31;55421;51.600;5.718;2023-04-25T08:52:36;10.79;60.73
68439;SHT31;55421;51.600;5.718;2023-04-25T08:55:09;10.83;61.25
68439;SHT31;55421;51.600;5.718;2023-04-25T08:57:39;10.94;61.31
68439;SHT31;55421;51.600;5.718;2023-04-25T09:00:09;10.94;60.68
68439;SHT31;55421;51.600;5.718;2023-04-25T09:02:38;10.89;60.30
68439;SHT31;55421;51.600;5.718;2023-04-25T09:05:05;10.83;60.48
68439;SHT31;55421;51.600;5.718;2023-04-25T09:07:32;10.76;60.23
68439;SHT31;55421;51.600;5.718;2023-04-25T09:09:59;10.71;60.32
68439;SHT31;55421;51.600;5.718;2023-04-25T09:12:28;10.67;60.65
68439;SHT31;55421;51.600;5.718;2023-04-25T09:15:11;10.65;60.84
68439;SHT31;55421;51.600;5.718;2023-04-25T09:17:41;10.72;61.52
68439;SHT31;55421;51.600;5.718;2023-04-25T09:20:12;10.94;61.26
68439;SHT31;55421;51.600;5.718;2023-04-25T09:22:40;11.15;60.88
68439;SHT31;55421;51.600;5.718;2023-04-25T09:25:09;11.29;60.23
68439;SHT31;55421;51.600;5.718;2023-04-25T09:27:50;11.40;60.39
68439;SHT31;55421;51.600;5.718;2023-04-25T09:30:28;11.47;60.08
68439;SHT31;55421;51.600;5.718;2023-04-25T09:32:57;11.53;60.18
68439;SHT31;55421;51.600;5.718;2023-04-25T09:35:35;11.52;59.93
68439;SHT31;55421;51.600;5.718;2023-04-25T09:38:08;11.47;60.01
68439;SHT31;55421;51.600;5.718;2023-04-25T09:40:42;11.36;59.90
68439;SHT31;55421;51.600;5.718;2023-04-25T09:43:23;11.15;59.78
68439;SHT31;55421;51.600;5.718;2023-04-25T09:45:53;10.88;60.59
68439;SHT31;55421;51.600;5.718;2023-04-25T09:48:24;10.46;61.43
68439;SHT31;55421;51.600;5.718;2023-04-25T09:51:04;9.98;62.40
68439;SHT31;55421;51.600;5.718;2023-04-25T09:53:37;9.65;64.46
68439;SHT31;55421;51.600;5.718;2023-04-25T09:56:05;9.47;65.43
68439;SHT31;55421;51.600;5.718;2023-04-25T09:58:35;9.39;64.95
68439;SHT31;55421;51.600;5.718;2023-04-25T10:01:04;9.38;65.14
68439;SHT31;55421;51.600;5.718;2023-04-25T10:03:35;9.40;65.50
68439;SHT31;55421;51.600;5.718;2023-04-25T10:06:07;9.50;65.77
68439;SHT31;55421;51.600;5.718;2023-04-25T10:08:38;9.57;65.98
68439;SHT31;55421;51.600;5.718;2023-04-25T10:11:05;9.62;65.87
68439;SHT31;55421;51.600;5.718;2023-04-25T10:13:35;9.73;65.76
68439;SHT31;55421;51.600;5.718;2023-04-25T10:16:03;9.90;66.18
68439;SHT31;55421;51.600;5.718;2023-04-25T10:18:31;10.10;66.20
68439;SHT31;55421;51.600;5.718;2023-04-25T10:21:03;10.31;65.86
68439;SHT31;55421;51.600;5.718;2023-04-25T10:23:32;10.56;65.59
68439;SHT31;55421;51.600;5.718;2023-04-25T10:26:00;10.78;64.88
68439;SHT31;55421;51.600;5.718;2023-04-25T10:28:28;11.00;64.06
68439;SHT31;55421;51.600;5.718;2023-04-25T10:31:01;11.22;63.29
68439;SHT31;55421;51.600;5.718;2023-04-25T10:33:39;11.44;62.92
68439;SHT31;55421;51.600;5.718;2023-04-25T10:36:17;11.61;62.22
68439;SHT31;55421;51.600;5.718;2023-04-25T10:38:47;11.77;61.86
68439;SHT31;55421;51.600;5.718;2023-04-25T10:41:19;11.97;61.70
68439;SHT31;55421;51.600;5.718;2023-04-25T10:43:49;12.11;61.51
68439;SHT31;55421;51.600;5.718;2023-04-25T10:46:27;12.28;61.27
68439;SHT31;55421;51.600;5.718;2023-04-25T10:48:57;12.51;60.62
68439;SHT31;55421;51.600;5.718;2023-04-25T10:51:28;12.74;59.62
68439;SHT31;55421;51.600;5.718;2023-04-25T10:54:02;12.84;59.30
68439;SHT31;55421;51.600;5.718;2023-04-25T10:59:06;12.97;57.96
68439;SHT31;55421;51.600;5.718;2023-04-25T11:01:42;12.69;57.32
68439;SHT31;55421;51.600;5.718;2023-04-25T11:04:21;12.22;57.42
68439;SHT31;55421;51.600;5.718;2023-04-25T11:09:49;11.56;58.27
68439;SHT31;55421;51.600;5.718;2023-04-25T11:12:16;11.29;57.67
68439;SHT31;55421;51.600;5.718;2023-04-25T11:14:43;11.07;57.85
68439;SHT31;55421;51.600;5.718;2023-04-25T11:17:10;10.86;58.56
68439;SHT31;55421;51.600;5.718;2023-04-25T11:19:37;10.63;59.48
68439;SHT31;55421;51.600;5.718;2023-04-25T11:22:03;10.43;59.84
68439;SHT31;55421;51.600;5.718;2023-04-25T11:24:31;10.23;59.65
68439;SHT31;55421;51.600;5.718;2023-04-25T11:27:03;10.07;59.92
68439;SHT31;55421;51.600;5.718;2023-04-25T11:29:33;9.95;60.24
68439;SHT31;55421;51.600;5.718;2023-04-25T11:32:01;9.87;60.87
68439;SHT31;55421;51.600;5.718;2023-04-25T11:34:28;9.86;61.18
68439;SHT31;55421;51.600;5.718;2023-04-25T11:36:57;9.86;61.53
68439;SHT31;55421;51.600;5.718;2023-04-25T11:39:24;9.89;61.77
68439;SHT31;55421;51.600;5.718;2023-04-25T11:41:55;9.97;62.58
68439;SHT31;55421;51.600;5.718;2023-04-25T11:44:21;10.07;62.46
68439;SHT31;55421;51.600;5.718;2023-04-25T11:46:48;10.15;61.77
68439;SHT31;55421;51.600;5.718;2023-04-25T11:49:15;10.28;61.76
68439;SHT31;55421;51.600;5.718;2023-04-25T11:51:45;10.43;61.53
68439;SHT31;55421;51.600;5.718;2023-04-25T11:54:14;10.66;61.56
68439;SHT31;55421;51.600;5.718;2023-04-25T11:56:44;10.86;60.53
68439;SHT31;55421;51.600;5.718;2023-04-25T11:59:12;11.07;60.25
68439;SHT31;55421;51.600;5.718;2023-04-25T12:01:40;11.31;60.79
68439;SHT31;55421;51.600;5.718;2023-04-25T12:04:16;11.59;60.79
68439;SHT31;55421;51.600;5.718;2023-04-25T12:06:52;11.92;60.40
68439;SHT31;55421;51.600;5.718;2023-04-25T12:09:28;12.20;59.23
68439;SHT31;55421;51.600;5.718;2023-04-25T12:12:00;12.47;58.07
68439;SHT31;55421;51.600;5.718;2023-04-25T12:14:32;12.64;56.48
68439;SHT31;55421;51.600;5.718;2023-04-25T12:17:02;12.64;56.37
68439;SHT31;55421;51.600;5.718;2023-04-25T12:19:32;12.56;56.74
68439;SHT31;55421;51.600;5.718;2023-04-25T12:22:01;12.45;56.99
68439;SHT31;55421;51.600;5.718;2023-04-25T12:24:29;12.37;56.57
68439;SHT31;55421;51.600;5.718;2023-04-25T12:27:01;12.39;54.13
68439;SHT31;55421;51.600;5.718;2023-04-25T12:29:34;12.31;52.20
68439;SHT31;55421;51.600;5.718;2023-04-25T12:32:01;12.32;51.45
68439;SHT31;55421;51.600;5.718;2023-04-25T12:34:28;12.40;51.53
68439;SHT31;55421;51.600;5.718;2023-04-25T12:36:54;12.54;51.78
68439;SHT31;55421;51.600;5.718;2023-04-25T12:39:23;12.63;50.42
68439;SHT31;55421;51.600;5.718;2023-04-25T12:41:52;12.64;49.29
68439;SHT31;55421;51.600;5.718;2023-04-25T12:44:22;12.70;50.55
68439;SHT31;55421;51.600;5.718;2023-04-25T12:46:48;12.80;50.34
68439;SHT31;55421;51.600;5.718;2023-04-25T12:49:16;12.86;50.00
68439;SHT31;55421;51.600;5.718;2023-04-25T12:51:42;12.89;49.23
68439;SHT31;55421;51.600;5.718;2023-04-25T12:54:09;12.94;48.61
68439;SHT31;55421;51.600;5.718;2023-04-25T12:56:36;12.92;46.86
68439;SHT31;55421;51.600;5.718;2023-04-25T12:59:02;12.94;47.64
68439;SHT31;55421;51.600;5.718;2023-04-25T13:01:29;13.03;48.54
68439;SHT31;55421;51.600;5.718;2023-04-25T13:03:56;13.16;48.98
68439;SHT31;55421;51.600;5.718;2023-04-25T13:06:23;13.22;48.11
68439;SHT31;55421;51.600;5.718;2023-04-25T13:08:49;13.15;49.68
68439;SHT31;55421;51.600;5.718;2023-04-25T13:11:16;13.13;52.20
68439;SHT31;55421;51.600;5.718;2023-04-25T13:13:43;13.00;52.68
68439;SHT31;55421;51.600;5.718;2023-04-25T13:16:10;12.78;52.47
68439;SHT31;55421;51.600;5.718;2023-04-25T13:18:39;12.49;52.45
68439;SHT31;55421;51.600;5.718;2023-04-25T13:21:07;12.22;52.46
68439;SHT31;55421;51.600;5.718;2023-04-25T13:23:37;11.98;52.90
68439;SHT31;55421;51.600;5.718;2023-04-25T13:26:03;11.84;53.77
68439;SHT31;55421;51.600;5.718;2023-04-25T13:28:30;11.74;53.06
68439;SHT31;55421;51.600;5.718;2023-04-25T13:30:59;11.67;53.14
68439;SHT31;55421;51.600;5.718;2023-04-25T13:33:26;11.67;53.50
68439;SHT31;55421;51.600;5.718;2023-04-25T13:35:53;11.82;54.28
68439;SHT31;55421;51.600;5.718;2023-04-25T13:38:21;12.11;54.83
68439;SHT31;55421;51.600;5.718;2023-04-25T13:40:49;12.31;54.18
68439;SHT31;55421;51.600;5.718;2023-04-25T13:43:21;12.34;53.52
68439;SHT31;55421;51.600;5.718;2023-04-25T13:45:49;12.40;52.73
68439;SHT31;55421;51.600;5.718;2023-04-25T13:48:17;12.43;51.96
68439;SHT31;55421;51.600;5.718;2023-04-25T13:50:44;12.46;52.02
68439;SHT31;55421;51.600;5.718;2023-04-25T13:53:11;12.40;50.55
68439;SHT31;55421;51.600;5.718;2023-04-25T13:55:38;12.34;49.77
68439;SHT31;55421;51.600;5.718;2023-04-25T13:58:05;12.33;50.28
68439;SHT31;55421;51.600;5.718;2023-04-25T14:00:36;12.37;50.79
68439;SHT31;55421;51.600;5.718;2023-04-25T14:03:04;12.43;50.80
68439;SHT31;55421;51.600;5.718;2023-04-25T14:05:33;12.34;50.56
68439;SHT31;55421;51.600;5.718;2023-04-25T14:08:05;12.15;51.27
68439;SHT31;55421;51.600;5.718;2023-04-25T14:10:34;12.14;52.51
68439;SHT31;55421;51.600;5.718;2023-04-25T14:13:02;12.26;52.91
68439;SHT31;55421;51.600;5.718;2023-04-25T14:15:30;12.35;52.47
68439;SHT31;55421;51.600;5.718;2023-04-25T14:18:00;12.38;52.00
68439;SHT31;55421;51.600;5.718;2023-04-25T14:20:28;12.40;51.24
68439;SHT31;55421;51.600;5.718;2023-04-25T14:22:55;12.39;50.83
68439;SHT31;55421;51.600;5.718;2023-04-25T14:25:24;12.40;50.55
68439;SHT31;55421;51.600;5.718;2023-04-25T14:27:51;12.37;49.72
68439;SHT31;55421;51.600;5.718;2023-04-25T14:30:18;12.33;48.47
68439;SHT31;55421;51.600;5.718;2023-04-25T14:32:46;12.27;48.67
68439;SHT31;55421;51.600;5.718;2023-04-25T14:35:17;12.31;48.81
68439;SHT31;55421;51.600;5.718;2023-04-25T14:37:44;12.33;49.03
68439;SHT31;55421;51.600;5.718;2023-04-25T14:40:10;12.41;50.04
68439;SHT31;55421;51.600;5.718;2023-04-25T14:42:39;12.41;49.24
68439;SHT31;55421;51.600;5.718;2023-04-25T14:45:06;12.36;49.40
68439;SHT31;55421;51.600;5.718;2023-04-25T14:47:35;12.39;50.05
68439;SHT31;55421;51.600;5.718;2023-04-25T14:50:03;12.38;49.34
68439;SHT31;55421;51.600;5.718;2023-04-25T14:52:31;12.32;48.99
68439;SHT31;55421;51.600;5.718;2023-04-25T14:54:58;12.28;49.13
68439;SHT31;55421;51.600;5.718;2023-04-25T14:57:26;12.30;49.86
68439;SHT31;55421;51.600;5.718;2023-04-25T14:59:52;12.33;49.70
68439;SHT31;55421;51.600;5.718;2023-04-25T15:02:19;12.39;50.11
68439;SHT31;55421;51.600;5.718;2023-04-25T15:04:45;12.45;50.64
68439;SHT31;55421;51.600;5.718;2023-04-25T15:07:12;12.53;50.84
68439;SHT31;55421;51.600;5.718;2023-04-25T15:09:38;12.62;50.76
68439;SHT31;55421;51.600;5.718;2023-04-25T15:12:05;12.69;50.59
68439;SHT31;55421;51.600;5.718;2023-04-25T15:14:31;12.79;50.80
68439;SHT31;55421;51.600;5.718;2023-04-25T15:17:00;12.91;50.90
68439;SHT31;55421;51.600;5.718;2023-04-25T15:19:26;13.06;50.64
68439;SHT31;55421;51.600;5.718;2023-04-25T15:21:53;13.18;50.31
68439;SHT31;55421;51.600;5.718;2023-04-25T15:24:20;13.26;49.83
68439;SHT31;55421;51.600;5.718;2023-04-25T15:26:47;13.32;49.70
68439;SHT31;55421;51.600;5.718;2023-04-25T15:29:14;13.37;49.42
68439;SHT31;55421;51.600;5.718;2023-04-25T15:31:40;13.35;48.58
68439;SHT31;55421;51.600;5.718;2023-04-25T15:34:06;13.38;48.83
68439;SHT31;55421;51.600;5.718;2023-04-25T15:36:33;13.48;49.01
68439;SHT31;55421;51.600;5.718;2023-04-25T15:38:59;13.56;48.11
68439;SHT31;55421;51.600;5.718;2023-04-25T15:41:26;13.65;47.80
68439;SHT31;55421;51.600;5.718;2023-04-25T15:43:52;13.70;47.66
68439;SHT31;55421;51.600;5.718;2023-04-25T15:46:19;13.70;46.77
68439;SHT31;55421;51.600;5.718;2023-04-25T15:48:48;13.63;45.43